sensor_id;sensor_type;location;lat;lon;timestamp;P1;durP1;ratioP1;P2;durP2;ratioP2
1993;SDS011;998;49.906;10.908;2022-09-09T00:00:17;7.70;;;1.50;;
1993;SDS011;998;49.906;10.908;2022-09-09T00:02:47;4.87;;;2.30;;
1993;SDS011;998;49.906;10.908;2022-09-09T00:05:20;5.00;;;1.90;;
1993;SDS011;998;49.906;10.908;2022-09-09T00:07:54;4.13;;;1.53;;
1993;SDS011;998;49.906;10.908;2022-09-09T00:10:28;4.87;;;1.80;;
1993;SDS011;998;49.906;10.908;2022-09-09T00:12:57;3.57;;;1.73;;
1993;SDS011;998;49.906;10.908;2022-09-09T00:15:33;5.23;;;1.97;;
1993;SDS011;998;49.906;10.908;2022-09-09T00:18:08;6.43;;;2.00;;
1993;SDS011;998;49.906;10.908;2022-09-09T00:20:43;3.47;;;1.60;;
1993;SDS011;998;49.906;10.908;2022-09-09T00:23:17;5.50;;;1.90;;
1993;SDS011;998;49.906;10.908;2022-09-09T00:25:52;3.77;;;1.63;;
1993;SDS011;998;49.906;10.908;2022-09-09T00:28:26;4.27;;;1.73;;
1993;SDS011;998;49.906;10.908;2022-09-09T00:30:57;6.03;;;1.77;;
1993;SDS011;998;49.906;10.908;2022-09-09T00:33:27;4.43;;;1.53;;
1993;SDS011;998;49.906;10.908;2022-09-09T00:35:57;4.70;;;1.87;;
1993;SDS011;998;49.906;10.908;2022-09-09T00:38:26;4.83;;;2.10;;
1993;SDS011;998;49.906;10.908;2022-09-09T00:41:00;5.03;;;1.30;;
1993;SDS011;998;49.906;10.908;2022-09-09T00:43:32;3.80;;;1.40;;
1993;SDS011;998;49.906;10.908;2022-09-09T00:46:13;3.50;;;1.47;;
1993;SDS011;998;49.906;10.908;2022-09-09T00:48:55;5.97;;;1.67;;
1993;SDS011;998;49.906;10.908;2022-09-09T00:51:30;4.60;;;2.00;;
1993;SDS011;998;49.906;10.908;2022-09-09T00:54:18;4.97;;;1.80;;
1993;SDS011;998;49.906;10.908;2022-09-09T00:56:58;5.07;;;2.23;;
1993;SDS011;998;49.906;10.908;2022-09-09T00:59:40;3.90;;;1.50;;
1993;SDS011;998;49.906;10.908;2022-09-09T01:02:14;5.23;;;3.37;;
1993;SDS011;998;49.906;10.908;2022-09-09T01:04:48;11.03;;;4.70;;
1993;SDS011;998;49.906;10.908;2022-09-09T01:07:16;6.40;;;2.03;;
1993;SDS011;998;49.906;10.908;2022-09-09T01:09:46;15.83;;;2.17;;
1993;SDS011;998;49.906;10.908;2022-09-09T01:12:23;6.10;;;2.00;;
1993;SDS011;998;49.906;10.908;2022-09-09T01:14:56;5.63;;;1.73;;
1993;SDS011;998;49.906;10.908;2022-09-09T01:17:30;5.30;;;2.50;;
1993;SDS011;998;49.906;10.908;2022-09-09T01:20:02;6.83;;;2.33;;
1993;SDS011;998;49.906;10.908;2022-09-09T01:22:34;9.97;;;3.27;;
1993;SDS011;998;49.906;10.908;2022-09-09T01:25:20;6.67;;;3.40;;
1993;SDS011;998;49.906;10.908;2022-09-09T01:27:54;4.37;;;1.70;;
1993;SDS011;998;49.906;10.908;2022-09-09T01:30:24;4.90;;;1.70;;
1993;SDS011;998;49.906;10.908;2022-09-09T01:32:53;5.90;;;1.87;;
1993;SDS011;998;49.906;10.908;2022-09-09T01:35:27;7.83;;;1.90;;
1993;SDS011;998;49.906;10.908;2022-09-09T01:38:01;5.57;;;2.03;;
1993;SDS011;998;49.906;10.908;2022-09-09T01:40:27;9.70;;;2.00;;
1993;SDS011;998;49.906;10.908;2022-09-09T01:42:56;10.00;;;1.93;;
1993;SDS011;998;49.906;10.908;2022-09-09T01:45:23;4.83;;;1.87;;
1993;SDS011;998;49.906;10.908;2022-09-09T01:47:50;4.23;;;2.20;;
1993;SDS011;998;49.906;10.908;2022-09-09T01:50:18;4.40;;;1.93;;
1993;SDS011;998;49.906;10.908;2022-09-09T01:52:47;8.63;;;2.37;;
1993;SDS011;998;49.906;10.908;2022-09-09T01:55:17;8.70;;;2.83;;
1993;SDS011;998;49.906;10.908;2022-09-09T01:57:54;3.43;;;1.80;;
1993;SDS011;998;49.906;10.908;2022-09-09T02:00:32;6.10;;;2.30;;
1993;SDS011;998;49.906;10.908;2022-09-09T02:03:04;3.40;;;1.73;;
1993;SDS011;998;49.906;10.908;2022-09-09T02:05:39;5.50;;;2.27;;
1993;SDS011;998;49.906;10.908;2022-09-09T02:08:08;5.73;;;2.50;;
1993;SDS011;998;49.906;10.908;2022-09-09T02:10:40;5.80;;;1.80;;
1993;SDS011;998;49.906;10.908;2022-09-09T02:13:14;5.20;;;2.30;;
1993;SDS011;998;49.906;10.908;2022-09-09T02:15:45;6.83;;;2.20;;
1993;SDS011;998;49.906;10.908;2022-09-09T02:18:18;4.10;;;1.90;;
1993;SDS011;998;49.906;10.908;2022-09-09T02:20:50;6.67;;;2.13;;
1993;SDS011;998;49.906;10.908;2022-09-09T02:23:18;4.27;;;2.00;;
1993;SDS011;998;49.906;10.908;2022-09-09T02:25:46;4.30;;;1.60;;
1993;SDS011;998;49.906;10.908;2022-09-09T02:28:18;5.00;;;1.83;;
1993;SDS011;998;49.906;10.908;2022-09-09T02:30:49;5.20;;;2.30;;
1993;SDS011;998;49.906;10.908;2022-09-09T02:33:20;3.57;;;1.70;;
1993;SDS011;998;49.906;10.908;2022-09-09T02:35:51;9.40;;;2.47;;
1993;SDS011;998;49.906;10.908;2022-09-09T02:38:18;9.00;;;1.87;;
1993;SDS011;998;49.906;10.908;2022-09-09T02:40:48;3.07;;;1.43;;
1993;SDS011;998;49.906;10.908;2022-09-09T02:43:14;6.07;;;1.97;;
1993;SDS011;998;49.906;10.908;2022-09-09T02:45:45;7.93;;;3.00;;
1993;SDS011;998;49.906;10.908;2022-09-09T02:48:20;10.00;;;3.60;;
1993;SDS011;998;49.906;10.908;2022-09-09T02:50:53;6.50;;;2.50;;
1993;SDS011;998;49.906;10.908;2022-09-09T02:53:27;6.03;;;1.93;;
1993;SDS011;998;49.906;10.908;2022-09-09T02:56:01;4.13;;;1.90;;
1993;SDS011;998;49.906;10.908;2022-09-09T02:58:31;5.30;;;2.17;;
1993;SDS011;998;49.906;10.908;2022-09-09T03:01:00;9.63;;;2.20;;
1993;SDS011;998;49.906;10.908;2022-09-09T03:03:28;5.53;;;3.23;;
1993;SDS011;998;49.906;10.908;2022-09-09T03:05:55;4.87;;;2.37;;
1993;SDS011;998;49.906;10.908;2022-09-09T03:08:22;3.57;;;1.80;;
1993;SDS011;998;49.906;10.908;2022-09-09T03:10:49;5.17;;;1.80;;
1993;SDS011;998;49.906;10.908;2022-09-09T03:13:18;3.60;;;1.40;;
1993;SDS011;998;49.906;10.908;2022-09-09T03:15:44;3.93;;;2.13;;
1993;SDS011;998;49.906;10.908;2022-09-09T03:18:14;4.30;;;1.50;;
1993;SDS011;998;49.906;10.908;2022-09-09T03:20:41;7.70;;;1.83;;
1993;SDS011;998;49.906;10.908;2022-09-09T03:23:08;4.53;;;1.80;;
1993;SDS011;998;49.906;10.908;2022-09-09T03:25:35;3.23;;;1.73;;
1993;SDS011;998;49.906;10.908;2022-09-09T03:28:02;4.07;;;1.93;;
1993;SDS011;998;49.906;10.908;2022-09-09T03:30:29;4.33;;;1.50;;
1993;SDS011;998;49.906;10.908;2022-09-09T03:32:56;5.47;;;1.70;;
1993;SDS011;998;49.906;10.908;2022-09-09T03:35:24;4.50;;;1.50;;
1993;SDS011;998;49.906;10.908;2022-09-09T03:37:50;6.53;;;2.53;;
1993;SDS011;998;49.906;10.908;2022-09-09T03:40:17;5.87;;;2.07;;
1993;SDS011;998;49.906;10.908;2022-09-09T03:42:45;5.10;;;3.60;;
1993;SDS011;998;49.906;10.908;2022-09-09T03:45:13;4.60;;;2.17;;
1993;SDS011;998;49.906;10.908;2022-09-09T03:47:40;3.60;;;2.47;;
1993;SDS011;998;49.906;10.908;2022-09-09T03:50:07;3.30;;;2.20;;
1993;SDS011;998;49.906;10.908;2022-09-09T03:52:38;4.77;;;2.10;;
1993;SDS011;998;49.906;10.908;2022-09-09T03:55:06;5.93;;;2.20;;
1993;SDS011;998;49.906;10.908;2022-09-09T03:57:34;3.97;;;1.63;;
1993;SDS011;998;49.906;10.908;2022-09-09T04:00:01;3.80;;;2.17;;
1993;SDS011;998;49.906;10.908;2022-09-09T04:02:28;5.53;;;2.20;;
1993;SDS011;998;49.906;10.908;2022-09-09T04:04:55;4.07;;;1.97;;
1993;SDS011;998;49.906;10.908;2022-09-09T04:07:22;7.40;;;1.80;;
1993;SDS011;998;49.906;10.908;2022-09-09T04:09:50;6.40;;;2.03;;
1993;SDS011;998;49.906;10.908;2022-09-09T04:12:18;8.00;;;2.00;;
1993;SDS011;998;49.906;10.908;2022-09-09T04:14:44;6.20;;;2.00;;
1993;SDS011;998;49.906;10.908;2022-09-09T04:17:11;3.33;;;1.80;;
1993;SDS011;998;49.906;10.908;2022-09-09T04:19:38;3.70;;;1.73;;
1993;SDS011;998;49.906;10.908;2022-09-09T04:22:05;4.60;;;1.50;;
1993;SDS011;998;49.906;10.908;2022-09-09T04:24:32;4.30;;;1.80;;
1993;SDS011;998;49.906;10.908;2022-09-09T04:27:00;4.20;;;2.23;;
1993;SDS011;998;49.906;10.908;2022-09-09T04:29:26;6.07;;;2.73;;
1993;SDS011;998;49.906;10.908;2022-09-09T04:31:53;3.03;;;1.80;;
1993;SDS011;998;49.906;10.908;2022-09-09T04:34:20;3.53;;;1.57;;
1993;SDS011;998;49.906;10.908;2022-09-09T04:36:47;3.80;;;1.57;;
1993;SDS011;998;49.906;10.908;2022-09-09T04:39:14;4.10;;;1.40;;
1993;SDS011;998;49.906;10.908;2022-09-09T04:41:40;3.97;;;1.90;;
1993;SDS011;998;49.906;10.908;2022-09-09T04:44:08;7.80;;;2.07;;
1993;SDS011;998;49.906;10.908;2022-09-09T04:46:36;4.43;;;2.00;;
1993;SDS011;998;49.906;10.908;2022-09-09T04:49:02;6.13;;;2.10;;
1993;SDS011;998;49.906;10.908;2022-09-09T04:51:30;3.90;;;2.50;;
1993;SDS011;998;49.906;10.908;2022-09-09T04:53:57;5.47;;;2.43;;
1993;SDS011;998;49.906;10.908;2022-09-09T04:56:24;3.20;;;2.07;;
1993;SDS011;998;49.906;10.908;2022-09-09T04:58:53;3.93;;;1.90;;
1993;SDS011;998;49.906;10.908;2022-09-09T05:01:21;3.90;;;2.03;;
1993;SDS011;998;49.906;10.908;2022-09-09T05:03:49;4.83;;;2.10;;
1993;SDS011;998;49.906;10.908;2022-09-09T05:06:17;2.70;;;1.40;;
1993;SDS011;998;49.906;10.908;2022-09-09T05:08:45;4.07;;;1.70;;
1993;SDS011;998;49.906;10.908;2022-09-09T05:11:13;4.60;;;1.87;;
1993;SDS011;998;49.906;10.908;2022-09-09T05:13:42;6.00;;;2.27;;
1993;SDS011;998;49.906;10.908;2022-09-09T05:16:09;4.13;;;2.00;;
1993;SDS011;998;49.906;10.908;2022-09-09T05:18:38;4.77;;;1.77;;
1993;SDS011;998;49.906;10.908;2022-09-09T05:21:04;4.60;;;1.80;;
1993;SDS011;998;49.906;10.908;2022-09-09T05:23:31;3.70;;;2.10;;
1993;SDS011;998;49.906;10.908;2022-09-09T05:25:59;6.97;;;2.33;;
1993;SDS011;998;49.906;10.908;2022-09-09T05:28:26;4.23;;;1.60;;
1993;SDS011;998;49.906;10.908;2022-09-09T05:30:57;5.53;;;1.57;;
1993;SDS011;998;49.906;10.908;2022-09-09T05:33:25;8.60;;;2.10;;
1993;SDS011;998;49.906;10.908;2022-09-09T05:36:00;3.63;;;1.80;;
1993;SDS011;998;49.906;10.908;2022-09-09T05:38:29;7.63;;;2.73;;
1993;SDS011;998;49.906;10.908;2022-09-09T05:40:57;4.93;;;2.03;;
1993;SDS011;998;49.906;10.908;2022-09-09T05:43:24;6.83;;;2.53;;
1993;SDS011;998;49.906;10.908;2022-09-09T05:46:01;7.53;;;2.40;;
1993;SDS011;998;49.906;10.908;2022-09-09T05:48:30;6.13;;;2.50;;
1993;SDS011;998;49.906;10.908;2022-09-09T05:50:58;7.10;;;1.97;;
1993;SDS011;998;49.906;10.908;2022-09-09T05:53:27;4.30;;;2.10;;
1993;SDS011;998;49.906;10.908;2022-09-09T05:56:00;5.57;;;2.33;;
1993;SDS011;998;49.906;10.908;2022-09-09T05:58:28;8.43;;;1.93;;
1993;SDS011;998;49.906;10.908;2022-09-09T06:01:00;6.27;;;2.30;;
1993;SDS011;998;49.906;10.908;2022-09-09T06:03:28;5.23;;;2.43;;
1993;SDS011;998;49.906;10.908;2022-09-09T06:05:59;4.27;;;2.47;;
1993;SDS011;998;49.906;10.908;2022-09-09T06:08:27;11.57;;;2.23;;
1993;SDS011;998;49.906;10.908;2022-09-09T06:11:00;12.70;;;3.77;;
1993;SDS011;998;49.906;10.908;2022-09-09T06:13:28;5.77;;;2.10;;
1993;SDS011;998;49.906;10.908;2022-09-09T06:15:55;3.67;;;2.00;;
1993;SDS011;998;49.906;10.908;2022-09-09T06:18:23;4.73;;;1.90;;
1993;SDS011;998;49.906;10.908;2022-09-09T06:20:54;5.57;;;2.40;;
1993;SDS011;998;49.906;10.908;2022-09-09T06:23:23;7.73;;;2.00;;
1993;SDS011;998;49.906;10.908;2022-09-09T06:25:51;4.60;;;2.10;;
1993;SDS011;998;49.906;10.908;2022-09-09T06:28:26;3.60;;;1.90;;
1993;SDS011;998;49.906;10.908;2022-09-09T06:30:56;7.73;;;2.00;;
1993;SDS011;998;49.906;10.908;2022-09-09T06:33:23;4.50;;;1.80;;
1993;SDS011;998;49.906;10.908;2022-09-09T06:35:51;6.60;;;1.93;;
1993;SDS011;998;49.906;10.908;2022-09-09T06:38:18;5.50;;;2.30;;
1993;SDS011;998;49.906;10.908;2022-09-09T06:40:51;8.70;;;3.33;;
1993;SDS011;998;49.906;10.908;2022-09-09T06:43:19;8.97;;;3.30;;
1993;SDS011;998;49.906;10.908;2022-09-09T06:45:52;7.23;;;2.10;;
1993;SDS011;998;49.906;10.908;2022-09-09T06:48:20;8.27;;;2.60;;
1993;SDS011;998;49.906;10.908;2022-09-09T06:50:47;5.73;;;2.17;;
1993;SDS011;998;49.906;10.908;2022-09-09T06:53:15;3.70;;;2.20;;
1993;SDS011;998;49.906;10.908;2022-09-09T06:55:44;4.00;;;2.00;;
1993;SDS011;998;49.906;10.908;2022-09-09T06:58:12;6.20;;;2.43;;
1993;SDS011;998;49.906;10.908;2022-09-09T07:00:39;7.40;;;2.20;;
1993;SDS011;998;49.906;10.908;2022-09-09T07:03:06;6.33;;;3.03;;
1993;SDS011;998;49.906;10.908;2022-09-09T07:05:33;3.90;;;2.00;;
1993;SDS011;998;49.906;10.908;2022-09-09T07:08:00;4.27;;;2.20;;
1993;SDS011;998;49.906;10.908;2022-09-09T07:10:27;6.53;;;2.50;;
1993;SDS011;998;49.906;10.908;2022-09-09T07:12:54;5.30;;;2.00;;
1993;SDS011;998;49.906;10.908;2022-09-09T07:15:22;3.07;;;1.90;;
1993;SDS011;998;49.906;10.908;2022-09-09T07:17:49;5.27;;;1.97;;
1993;SDS011;998;49.906;10.908;2022-09-09T07:20:18;6.90;;;2.00;;
1993;SDS011;998;49.906;10.908;2022-09-09T07:22:45;4.97;;;2.13;;
1993;SDS011;998;49.906;10.908;2022-09-09T07:25:12;7.20;;;2.00;;
1993;SDS011;998;49.906;10.908;2022-09-09T07:27:39;6.20;;;2.87;;
1993;SDS011;998;49.906;10.908;2022-09-09T07:30:06;4.43;;;2.50;;
1993;SDS011;998;49.906;10.908;2022-09-09T07:32:35;4.20;;;1.77;;
1993;SDS011;998;49.906;10.908;2022-09-09T07:35:02;9.10;;;4.00;;
1993;SDS011;998;49.906;10.908;2022-09-09T07:37:29;5.60;;;1.80;;
1993;SDS011;998;49.906;10.908;2022-09-09T07:39:56;4.70;;;1.60;;
1993;SDS011;998;49.906;10.908;2022-09-09T07:42:23;4.63;;;1.80;;
1993;SDS011;998;49.906;10.908;2022-09-09T07:44:50;5.10;;;1.80;;
1993;SDS011;998;49.906;10.908;2022-09-09T07:47:19;2.67;;;1.40;;
1993;SDS011;998;49.906;10.908;2022-09-09T07:49:48;5.13;;;1.53;;
1993;SDS011;998;49.906;10.908;2022-09-09T07:52:14;3.67;;;1.27;;
1993;SDS011;998;49.906;10.908;2022-09-09T07:54:41;3.40;;;1.50;;
1993;SDS011;998;49.906;10.908;2022-09-09T07:57:10;5.20;;;1.83;;
1993;SDS011;998;49.906;10.908;2022-09-09T07:59:37;3.53;;;1.60;;
1993;SDS011;998;49.906;10.908;2022-09-09T08:02:04;4.80;;;1.80;;
1993;SDS011;998;49.906;10.908;2022-09-09T08:04:31;5.50;;;1.67;;
1993;SDS011;998;49.906;10.908;2022-09-09T08:07:00;3.80;;;1.60;;
1993;SDS011;998;49.906;10.908;2022-09-09T08:09:28;3.70;;;1.40;;
1993;SDS011;998;49.906;10.908;2022-09-09T08:11:57;4.00;;;1.20;;
1993;SDS011;998;49.906;10.908;2022-09-09T08:14:24;6.10;;;1.50;;
1993;SDS011;998;49.906;10.908;2022-09-09T08:16:52;3.20;;;1.77;;
1993;SDS011;998;49.906;10.908;2022-09-09T08:19:19;10.10;;;1.70;;
1993;SDS011;998;49.906;10.908;2022-09-09T08:21:46;3.30;;;1.43;;
1993;SDS011;998;49.906;10.908;2022-09-09T08:24:15;2.60;;;1.20;;
1993;SDS011;998;49.906;10.908;2022-09-09T08:26:45;2.93;;;1.10;;
1993;SDS011;998;49.906;10.908;2022-09-09T08:29:14;6.43;;;1.70;;
1993;SDS011;998;49.906;10.908;2022-09-09T08:31:42;2.30;;;0.90;;
1993;SDS011;998;49.906;10.908;2022-09-09T08:34:10;6.23;;;1.40;;
1993;SDS011;998;49.906;10.908;2022-09-09T08:36:38;3.00;;;1.40;;
1993;SDS011;998;49.906;10.908;2022-09-09T08:45:49;3.57;;;1.23;;
1993;SDS011;998;49.906;10.908;2022-09-09T08:48:58;2.67;;;1.30;;
1993;SDS011;998;49.906;10.908;2022-09-09T09:05:21;3.77;;;1.07;;
1993;SDS011;998;49.906;10.908;2022-09-09T09:08:20;4.53;;;1.43;;
1993;SDS011;998;49.906;10.908;2022-09-09T09:11:39;4.20;;;2.10;;
1993;SDS011;998;49.906;10.908;2022-09-09T09:14:14;6.10;;;1.47;;
1993;SDS011;998;49.906;10.908;2022-09-09T09:16:56;3.93;;;1.10;;
1993;SDS011;998;49.906;10.908;2022-09-09T09:19:26;3.70;;;1.23;;
1993;SDS011;998;49.906;10.908;2022-09-09T09:21:57;3.03;;;1.27;;
1993;SDS011;998;49.906;10.908;2022-09-09T09:27:31;3.57;;;1.27;;
1993;SDS011;998;49.906;10.908;2022-09-09T09:30:04;2.53;;;1.03;;
1993;SDS011;998;49.906;10.908;2022-09-09T09:32:40;2.50;;;1.37;;
1993;SDS011;998;49.906;10.908;2022-09-09T09:35:11;4.10;;;1.63;;
1993;SDS011;998;49.906;10.908;2022-09-09T09:37:40;3.40;;;1.30;;
1993;SDS011;998;49.906;10.908;2022-09-09T09:40:09;4.70;;;1.50;;
1993;SDS011;998;49.906;10.908;2022-09-09T09:42:37;3.97;;;1.33;;
1993;SDS011;998;49.906;10.908;2022-09-09T09:45:14;3.63;;;1.40;;
1993;SDS011;998;49.906;10.908;2022-09-09T09:47:45;6.07;;;1.20;;
1993;SDS011;998;49.906;10.908;2022-09-09T09:50:15;11.33;;;1.67;;
1993;SDS011;998;49.906;10.908;2022-09-09T09:52:51;6.40;;;2.10;;
1993;SDS011;998;49.906;10.908;2022-09-09T09:55:50;10.03;;;1.87;;
1993;SDS011;998;49.906;10.908;2022-09-09T09:58:23;4.77;;;1.20;;
1993;SDS011;998;49.906;10.908;2022-09-09T10:00:53;4.13;;;1.50;;
1993;SDS011;998;49.906;10.908;2022-09-09T10:03:25;7.67;;;2.07;;
1993;SDS011;998;49.906;10.908;2022-09-09T10:05:53;4.77;;;1.30;;
1993;SDS011;998;49.906;10.908;2022-09-09T10:08:22;5.93;;;2.40;;
1993;SDS011;998;49.906;10.908;2022-09-09T10:10:56;10.27;;;1.60;;
1993;SDS011;998;49.906;10.908;2022-09-09T10:13:44;9.83;;;1.37;;
1993;SDS011;998;49.906;10.908;2022-09-09T10:16:23;2.97;;;0.90;;
1993;SDS011;998;49.906;10.908;2022-09-09T10:18:58;11.80;;;1.30;;
1993;SDS011;998;49.906;10.908;2022-09-09T10:21:32;5.20;;;1.27;;
1993;SDS011;998;49.906;10.908;2022-09-09T10:24:30;7.13;;;2.50;;
1993;SDS011;998;49.906;10.908;2022-09-09T10:27:12;3.87;;;1.30;;
1993;SDS011;998;49.906;10.908;2022-09-09T10:30:04;3.80;;;0.93;;
1993;SDS011;998;49.906;10.908;2022-09-09T10:32:39;4.50;;;1.40;;
1993;SDS011;998;49.906;10.908;2022-09-09T10:35:19;5.17;;;1.40;;
1993;SDS011;998;49.906;10.908;2022-09-09T10:38:03;5.50;;;1.17;;
1993;SDS011;998;49.906;10.908;2022-09-09T10:40:43;5.80;;;1.10;;
1993;SDS011;998;49.906;10.908;2022-09-09T10:43:22;7.97;;;1.17;;
1993;SDS011;998;49.906;10.908;2022-09-09T10:46:01;6.23;;;1.20;;
1993;SDS011;998;49.906;10.908;2022-09-09T10:48:40;11.30;;;2.33;;
1993;SDS011;998;49.906;10.908;2022-09-09T10:51:21;4.73;;;1.67;;
1993;SDS011;998;49.906;10.908;2022-09-09T10:53:53;2.63;;;1.00;;
1993;SDS011;998;49.906;10.908;2022-09-09T10:56:32;4.03;;;1.40;;
1993;SDS011;998;49.906;10.908;2022-09-09T10:59:02;3.87;;;1.30;;
1993;SDS011;998;49.906;10.908;2022-09-09T11:01:34;2.80;;;0.90;;
1993;SDS011;998;49.906;10.908;2022-09-09T11:04:09;2.60;;;0.90;;
1993;SDS011;998;49.906;10.908;2022-09-09T11:06:41;5.03;;;1.23;;
1993;SDS011;998;49.906;10.908;2022-09-09T11:09:14;4.27;;;1.57;;
1993;SDS011;998;49.906;10.908;2022-09-09T11:11:46;11.53;;;1.77;;
1993;SDS011;998;49.906;10.908;2022-09-09T11:14:19;7.10;;;1.10;;
1993;SDS011;998;49.906;10.908;2022-09-09T11:16:53;4.83;;;1.33;;
1993;SDS011;998;49.906;10.908;2022-09-09T11:19:26;3.50;;;1.17;;
1993;SDS011;998;49.906;10.908;2022-09-09T11:21:59;2.40;;;1.00;;
1993;SDS011;998;49.906;10.908;2022-09-09T11:24:29;4.33;;;1.30;;
1993;SDS011;998;49.906;10.908;2022-09-09T11:27:06;4.97;;;1.30;;
1993;SDS011;998;49.906;10.908;2022-09-09T11:29:53;3.40;;;1.20;;
1993;SDS011;998;49.906;10.908;2022-09-09T11:35:45;3.63;;;1.63;;
1993;SDS011;998;49.906;10.908;2022-09-09T11:38:25;3.93;;;1.07;;
1993;SDS011;998;49.906;10.908;2022-09-09T11:40:56;4.83;;;1.30;;
1993;SDS011;998;49.906;10.908;2022-09-09T11:43:28;2.50;;;0.90;;
1993;SDS011;998;49.906;10.908;2022-09-09T11:45:58;4.63;;;1.40;;
1993;SDS011;998;49.906;10.908;2022-09-09T11:48:34;3.80;;;1.70;;
1993;SDS011;998;49.906;10.908;2022-09-09T11:51:04;4.50;;;1.10;;
1993;SDS011;998;49.906;10.908;2022-09-09T11:53:33;4.63;;;1.30;;
1993;SDS011;998;49.906;10.908;2022-09-09T11:56:09;4.97;;;1.10;;
1993;SDS011;998;49.906;10.908;2022-09-09T11:58:43;2.70;;;1.03;;
1993;SDS011;998;49.906;10.908;2022-09-09T12:01:34;3.20;;;1.10;;
1993;SDS011;998;49.906;10.908;2022-09-09T12:04:06;5.27;;;1.13;;
1993;SDS011;998;49.906;10.908;2022-09-09T12:06:43;5.10;;;1.53;;
1993;SDS011;998;49.906;10.908;2022-09-09T12:09:19;4.33;;;1.27;;
1993;SDS011;998;49.906;10.908;2022-09-09T12:12:04;4.13;;;1.10;;
1993;SDS011;998;49.906;10.908;2022-09-09T12:14:36;4.57;;;0.80;;
1993;SDS011;998;49.906;10.908;2022-09-09T12:17:17;2.63;;;1.00;;
1993;SDS011;998;49.906;10.908;2022-09-09T12:19:46;7.40;;;1.13;;
1993;SDS011;998;49.906;10.908;2022-09-09T12:22:16;4.07;;;1.03;;
1993;SDS011;998;49.906;10.908;2022-09-09T12:24:57;5.00;;;1.07;;
1993;SDS011;998;49.906;10.908;2022-09-09T12:27:33;3.13;;;1.03;;
1993;SDS011;998;49.906;10.908;2022-09-09T12:30:09;9.20;;;1.07;;
1993;SDS011;998;49.906;10.908;2022-09-09T12:32:38;3.20;;;1.37;;
1993;SDS011;998;49.906;10.908;2022-09-09T12:35:09;5.43;;;0.80;;
1993;SDS011;998;49.906;10.908;2022-09-09T12:37:38;2.57;;;0.90;;
1993;SDS011;998;49.906;10.908;2022-09-09T12:40:18;2.33;;;0.80;;
1993;SDS011;998;49.906;10.908;2022-09-09T12:42:48;2.73;;;0.80;;
1993;SDS011;998;49.906;10.908;2022-09-09T12:45:17;2.47;;;0.80;;
1993;SDS011;998;49.906;10.908;2022-09-09T12:47:45;2.53;;;0.90;;
1993;SDS011;998;49.906;10.908;2022-09-09T12:50:18;5.03;;;1.10;;
1993;SDS011;998;49.906;10.908;2022-09-09T12:52:48;2.73;;;0.73;;
1993;SDS011;998;49.906;10.908;2022-09-09T12:55:19;2.13;;;0.70;;
1993;SDS011;998;49.906;10.908;2022-09-09T12:57:50;3.83;;;0.87;;
1993;SDS011;998;49.906;10.908;2022-09-09T13:00:20;3.07;;;0.97;;
1993;SDS011;998;49.906;10.908;2022-09-09T13:02:50;3.43;;;1.00;;
1993;SDS011;998;49.906;10.908;2022-09-09T13:05:19;2.83;;;1.50;;
1993;SDS011;998;49.906;10.908;2022-09-09T13:07:47;2.07;;;0.80;;
1993;SDS011;998;49.906;10.908;2022-09-09T13:10:15;3.23;;;1.10;;
1993;SDS011;998;49.906;10.908;2022-09-09T13:12:49;2.80;;;1.00;;
1993;SDS011;998;49.906;10.908;2022-09-09T13:15:20;2.77;;;1.10;;
1993;SDS011;998;49.906;10.908;2022-09-09T13:17:52;2.60;;;0.87;;
1993;SDS011;998;49.906;10.908;2022-09-09T13:20:20;4.47;;;1.17;;
1993;SDS011;998;49.906;10.908;2022-09-09T13:22:48;4.13;;;0.80;;
1993;SDS011;998;49.906;10.908;2022-09-09T13:25:18;2.57;;;0.90;;
1993;SDS011;998;49.906;10.908;2022-09-09T13:27:57;2.63;;;1.00;;
1993;SDS011;998;49.906;10.908;2022-09-09T13:30:27;4.93;;;1.00;;
1993;SDS011;998;49.906;10.908;2022-09-09T13:33:02;3.17;;;0.90;;
1993;SDS011;998;49.906;10.908;2022-09-09T13:35:32;1.90;;;0.67;;
1993;SDS011;998;49.906;10.908;2022-09-09T13:37:59;3.20;;;0.90;;
1993;SDS011;998;49.906;10.908;2022-09-09T13:40:34;2.67;;;0.90;;
1993;SDS011;998;49.906;10.908;2022-09-09T13:43:01;2.50;;;0.80;;
1993;SDS011;998;49.906;10.908;2022-09-09T13:45:31;4.20;;;1.10;;
1993;SDS011;998;49.906;10.908;2022-09-09T13:48:07;2.63;;;0.80;;
1993;SDS011;998;49.906;10.908;2022-09-09T13:50:35;3.40;;;1.27;;
1993;SDS011;998;49.906;10.908;2022-09-09T13:53:02;2.63;;;0.90;;
1993;SDS011;998;49.906;10.908;2022-09-09T13:55:29;3.83;;;1.13;;
1993;SDS011;998;49.906;10.908;2022-09-09T13:57:57;3.40;;;1.17;;
1993;SDS011;998;49.906;10.908;2022-09-09T14:00:25;3.77;;;1.03;;
1993;SDS011;998;49.906;10.908;2022-09-09T14:02:56;5.90;;;1.00;;
1993;SDS011;998;49.906;10.908;2022-09-09T14:05:23;6.83;;;1.03;;
1993;SDS011;998;49.906;10.908;2022-09-09T14:07:50;3.50;;;1.20;;
1993;SDS011;998;49.906;10.908;2022-09-09T14:10:17;2.87;;;0.73;;
1993;SDS011;998;49.906;10.908;2022-09-09T14:12:44;6.10;;;1.33;;
1993;SDS011;998;49.906;10.908;2022-09-09T14:15:11;2.53;;;0.83;;
1993;SDS011;998;49.906;10.908;2022-09-09T14:17:39;3.43;;;0.80;;
1993;SDS011;998;49.906;10.908;2022-09-09T14:20:08;3.27;;;0.97;;
1993;SDS011;998;49.906;10.908;2022-09-09T14:22:36;2.97;;;0.90;;
1993;SDS011;998;49.906;10.908;2022-09-09T14:25:04;2.33;;;0.87;;
1993;SDS011;998;49.906;10.908;2022-09-09T14:27:32;6.23;;;1.27;;
1993;SDS011;998;49.906;10.908;2022-09-09T14:29:59;3.43;;;0.87;;
1993;SDS011;998;49.906;10.908;2022-09-09T14:32:26;6.83;;;1.20;;
1993;SDS011;998;49.906;10.908;2022-09-09T14:34:55;4.20;;;1.40;;
1993;SDS011;998;49.906;10.908;2022-09-09T14:37:24;2.20;;;0.80;;
1993;SDS011;998;49.906;10.908;2022-09-09T14:39:51;2.47;;;0.80;;
1993;SDS011;998;49.906;10.908;2022-09-09T14:42:19;2.10;;;0.70;;
1993;SDS011;998;49.906;10.908;2022-09-09T14:44:47;2.60;;;1.00;;
1993;SDS011;998;49.906;10.908;2022-09-09T14:47:14;4.80;;;1.17;;
1993;SDS011;998;49.906;10.908;2022-09-09T14:49:40;2.50;;;0.97;;
1993;SDS011;998;49.906;10.908;2022-09-09T14:52:08;2.30;;;0.80;;
1993;SDS011;998;49.906;10.908;2022-09-09T14:54:36;6.37;;;1.40;;
1993;SDS011;998;49.906;10.908;2022-09-09T14:57:03;2.40;;;0.80;;
1993;SDS011;998;49.906;10.908;2022-09-09T14:59:30;3.50;;;0.83;;
1993;SDS011;998;49.906;10.908;2022-09-09T15:01:56;3.23;;;0.90;;
1993;SDS011;998;49.906;10.908;2022-09-09T15:04:23;5.40;;;1.00;;
1993;SDS011;998;49.906;10.908;2022-09-09T15:06:50;2.10;;;0.80;;
1993;SDS011;998;49.906;10.908;2022-09-09T15:09:18;2.30;;;0.70;;
1993;SDS011;998;49.906;10.908;2022-09-09T15:11:46;3.60;;;0.80;;
1993;SDS011;998;49.906;10.908;2022-09-09T15:14:13;7.40;;;1.30;;
1993;SDS011;998;49.906;10.908;2022-09-09T15:16:40;3.80;;;1.30;;
1993;SDS011;998;49.906;10.908;2022-09-09T15:19:07;6.30;;;1.37;;
1993;SDS011;998;49.906;10.908;2022-09-09T15:21:35;3.40;;;1.33;;
1993;SDS011;998;49.906;10.908;2022-09-09T15:24:03;6.17;;;1.40;;
1993;SDS011;998;49.906;10.908;2022-09-09T15:26:32;2.20;;;0.80;;
1993;SDS011;998;49.906;10.908;2022-09-09T15:29:00;5.80;;;1.20;;
1993;SDS011;998;49.906;10.908;2022-09-09T15:31:27;3.10;;;0.90;;
1993;SDS011;998;49.906;10.908;2022-09-09T15:33:56;2.83;;;0.97;;
1993;SDS011;998;49.906;10.908;2022-09-09T15:36:27;3.67;;;0.90;;
1993;SDS011;998;49.906;10.908;2022-09-09T15:38:55;2.53;;;0.80;;
1993;SDS011;998;49.906;10.908;2022-09-09T15:41:22;12.50;;;1.20;;
1993;SDS011;998;49.906;10.908;2022-09-09T15:43:49;2.10;;;0.70;;
1993;SDS011;998;49.906;10.908;2022-09-09T15:46:26;3.73;;;1.10;;
1993;SDS011;998;49.906;10.908;2022-09-09T15:48:55;2.20;;;0.80;;
1993;SDS011;998;49.906;10.908;2022-09-09T15:51:24;3.47;;;0.90;;
1993;SDS011;998;49.906;10.908;2022-09-09T15:53:55;2.90;;;0.80;;
1993;SDS011;998;49.906;10.908;2022-09-09T15:56:23;2.20;;;0.70;;
1993;SDS011;998;49.906;10.908;2022-09-09T15:58:50;5.00;;;0.90;;
1993;SDS011;998;49.906;10.908;2022-09-09T16:01:17;2.20;;;0.93;;
1993;SDS011;998;49.906;10.908;2022-09-09T16:03:46;3.10;;;0.90;;